createdAt,value
2022-10-11T00:01:59.571Z,5.07
2022-10-11T00:04:27.335Z,5.05
2022-10-11T00:06:54.944Z,5.03
2022-10-11T00:09:23.971Z,4.96
2022-10-11T00:11:51.644Z,4.94
2022-10-11T00:14:19.241Z,4.94
2022-10-11T00:16:46.871Z,4.76
2022-10-11T00:19:14.794Z,4.80
2022-10-11T00:21:42.516Z,4.56
2022-10-11T00:24:12.697Z,4.80
2022-10-11T00:26:46.414Z,4.80
2022-10-11T00:29:14.662Z,4.80
2022-10-11T00:31:42.398Z,4.77
2022-10-11T00:34:11.383Z,4.73
2022-10-11T00:36:39.112Z,4.67
2022-10-11T00:39:07.083Z,4.64
2022-10-11T00:41:34.818Z,4.51
2022-10-11T00:44:15.854Z,4.64
2022-10-11T00:46:45.839Z,4.62
2022-10-11T00:49:19.304Z,4.57
2022-10-11T00:51:51.771Z,4.59
2022-10-11T00:54:25.259Z,4.53
2022-10-11T00:56:57.299Z,4.50
2022-10-11T00:59:30.656Z,4.43
2022-10-11T01:01:58.602Z,4.38
2022-10-11T01:04:26.229Z,4.47
2022-10-11T01:06:55.651Z,4.38
2022-10-11T01:09:23.533Z,4.46
2022-10-11T01:11:53.021Z,4.41
2022-10-11T01:14:36.115Z,4.32
2022-10-11T01:17:11.819Z,4.39
2022-10-11T01:19:55.973Z,4.39
2022-10-11T01:22:47.198Z,4.33
2022-10-11T01:25:21.844Z,4.23
2022-10-11T01:28:17.712Z,4.24
2022-10-11T01:30:48.049Z,4.24
2022-10-11T01:33:26.489Z,4.32
2022-10-11T01:36:04.604Z,4.33
2022-10-11T01:38:39.063Z,4.29
2022-10-11T01:41:10.708Z,4.27
2022-10-11T01:43:40.376Z,4.36
2022-10-11T01:46:10.355Z,4.24
2022-10-11T01:48:48.281Z,4.15
2022-10-11T01:51:16.559Z,4.17
2022-10-11T01:54:05.360Z,4.20
2022-10-11T01:56:47.704Z,4.17
2022-10-11T01:59:29.814Z,4.17
2022-10-11T02:02:11.706Z,3.95
2022-10-11T02:04:46.688Z,4.05
2022-10-11T02:07:23.109Z,3.98
2022-10-11T02:09:57.941Z,3.87
2022-10-11T02:12:32.417Z,3.91
2022-10-11T02:15:03.428Z,3.92
2022-10-11T02:17:40.467Z,3.93
2022-10-11T02:20:13.951Z,3.90
2022-10-11T02:22:45.275Z,3.86
2022-10-11T02:25:18.340Z,3.88
2022-10-11T02:27:48.801Z,3.86
2022-10-11T02:30:17.290Z,3.84
2022-10-11T02:32:48.052Z,3.76
2022-10-11T02:35:15.895Z,3.79
2022-10-11T02:37:49.143Z,3.78
2022-10-11T02:40:21.690Z,3.66
2022-10-11T02:42:54.579Z,3.69
2022-10-11T02:45:27.619Z,3.70
2022-10-11T02:47:57.703Z,3.44
2022-10-11T02:50:25.632Z,3.63
2022-10-11T02:52:53.217Z,3.61
2022-10-11T02:55:21.363Z,3.59
2022-10-11T02:57:49.034Z,3.59
2022-10-11T03:00:16.913Z,3.56
2022-10-11T03:02:44.718Z,3.56
2022-10-11T03:05:13.871Z,3.54
2022-10-11T03:07:41.903Z,3.58
2022-10-11T03:10:10.523Z,3.53
2022-10-11T03:12:38.134Z,3.53
2022-10-11T03:15:06.892Z,3.47
2022-10-11T03:17:37.203Z,3.48
2022-10-11T03:20:06.265Z,3.50
2022-10-11T03:22:35.326Z,3.54
2022-10-11T03:25:04.585Z,3.43
2022-10-11T03:27:32.679Z,3.39
2022-10-11T03:30:00.475Z,3.23
2022-10-11T03:32:28.591Z,3.33
2022-10-11T03:34:56.183Z,3.28
2022-10-11T03:37:23.941Z,3.24
2022-10-11T03:39:53.064Z,3.30
2022-10-11T03:42:20.835Z,3.18
2022-10-11T03:44:49.533Z,3.11
2022-10-11T03:47:17.191Z,3.30
2022-10-11T03:49:44.831Z,3.27
2022-10-11T03:52:12.747Z,3.28
2022-10-11T03:54:40.368Z,3.24
2022-10-11T03:57:09.402Z,3.20
2022-10-11T03:59:37.077Z,3.17
2022-10-11T04:02:04.932Z,3.12
2022-10-11T04:04:32.914Z,3.11
2022-10-11T04:07:00.567Z,3.13
2022-10-11T04:09:28.259Z,3.12
2022-10-11T04:11:56.297Z,3.08
2022-10-11T04:14:25.289Z,3.06
2022-10-11T04:16:52.981Z,3.00
2022-10-11T04:19:20.894Z,3.05
2022-10-11T04:21:49.097Z,3.01
2022-10-11T04:24:16.735Z,2.98
2022-10-11T04:26:44.398Z,3.01
2022-10-11T04:29:12.071Z,2.98
2022-10-11T04:31:41.082Z,2.96
2022-10-11T04:34:08.638Z,2.92
2022-10-11T04:36:36.427Z,2.82
2022-10-11T04:39:04.303Z,2.89
2022-10-11T04:41:32.110Z,2.89
2022-10-11T04:43:59.717Z,2.89
2022-10-11T04:46:27.532Z,2.90
2022-10-11T04:48:56.873Z,2.93
2022-10-11T04:51:24.979Z,2.90
2022-10-11T04:53:52.654Z,2.88
2022-10-11T04:56:20.419Z,2.93
2022-10-11T04:58:49.399Z,2.86
2022-10-11T05:01:17.010Z,2.88
2022-10-11T05:03:44.695Z,2.84
2022-10-11T05:06:14.291Z,2.86
2022-10-11T05:08:42.759Z,2.83
2022-10-11T05:11:16.129Z,2.86
2022-10-11T05:13:45.750Z,2.81
2022-10-11T05:16:14.389Z,2.80
2022-10-11T05:18:42.262Z,2.79
2022-10-11T05:21:18.540Z,2.69
2022-10-11T05:23:47.838Z,2.75
2022-10-11T05:26:15.663Z,2.75
2022-10-11T05:28:43.387Z,2.80
2022-10-11T05:31:11.167Z,2.75
2022-10-11T05:33:38.817Z,2.72
2022-10-11T05:36:07.976Z,2.65
2022-10-11T05:38:37.654Z,2.76
2022-10-11T05:41:06.436Z,2.78
2022-10-11T05:43:34.097Z,2.75
2022-10-11T05:46:02.070Z,2.77
2022-10-11T05:48:29.855Z,2.77
2022-10-11T05:51:00.329Z,2.77
2022-10-11T05:53:28.145Z,2.65
2022-10-11T05:55:57.725Z,2.76
2022-10-11T05:58:25.953Z,2.74
2022-10-11T06:00:54.847Z,2.71
2022-10-11T06:03:22.583Z,2.64
2022-10-11T06:05:54.481Z,2.64
2022-10-11T06:08:24.460Z,2.67
2022-10-11T06:10:52.267Z,2.76
2022-10-11T06:13:21.416Z,2.88
2022-10-11T06:15:49.126Z,2.78
2022-10-11T06:18:16.804Z,2.89
2022-10-11T06:20:44.419Z,2.93
2022-10-11T06:23:12.117Z,2.93
2022-10-11T06:25:39.725Z,2.96
2022-10-11T06:28:07.388Z,3.02
2022-10-11T06:30:36.447Z,3.06
2022-10-11T06:33:05.071Z,3.15
2022-10-11T06:35:32.785Z,3.22
2022-10-11T06:38:00.504Z,3.32
2022-10-11T06:40:28.180Z,3.40
2022-10-11T06:42:55.980Z,3.48
2022-10-11T06:45:23.879Z,3.49
2022-10-11T06:47:52.900Z,3.71
2022-10-11T06:50:40.781Z,3.79
2022-10-11T06:53:08.789Z,3.91
2022-10-11T06:55:36.636Z,3.97
2022-10-11T06:58:04.286Z,4.18
2022-10-11T07:00:32.007Z,4.28
2022-10-11T07:03:01.003Z,4.45
2022-10-11T07:05:29.387Z,4.54
2022-10-11T07:07:57.258Z,4.75
2022-10-11T07:10:25.012Z,5.00
2022-10-11T07:12:52.738Z,5.18
2022-10-11T07:15:21.001Z,5.27
2022-10-11T07:17:48.775Z,5.34
2022-10-11T07:20:18.004Z,5.58
2022-10-11T07:22:45.729Z,5.72
2022-10-11T07:25:13.413Z,5.95
2022-10-11T07:27:41.119Z,6.10
2022-10-11T07:30:09.769Z,6.25
2022-10-11T07:32:37.419Z,6.46
2022-10-11T07:35:05.737Z,6.69
2022-10-11T07:37:35.831Z,6.93
2022-10-11T07:40:03.643Z,7.17
2022-10-11T07:42:31.357Z,7.42
2022-10-11T07:44:59.418Z,7.78
2022-10-11T07:47:27.115Z,7.99
2022-10-11T07:49:54.820Z,8.25
2022-10-11T07:52:22.502Z,8.53
2022-10-11T07:54:51.591Z,8.64
2022-10-11T07:57:19.844Z,8.89
2022-10-11T07:59:50.219Z,9.17
2022-10-11T08:02:18.240Z,9.40
2022-10-11T08:04:45.863Z,9.58
2022-10-11T08:07:13.602Z,9.71
2022-10-11T08:09:41.338Z,9.78
2022-10-11T08:12:10.934Z,9.96
2022-10-11T08:14:38.628Z,10.16
2022-10-11T08:17:06.327Z,10.36
2022-10-11T08:19:34.064Z,10.14
2022-10-11T08:22:01.937Z,10.46
2022-10-11T08:24:30.544Z,10.72
2022-10-11T08:27:00.250Z,10.94
2022-10-11T08:29:29.311Z,10.90
2022-10-11T08:31:56.957Z,10.79
2022-10-11T08:34:24.798Z,11.20
2022-10-11T08:36:52.431Z,11.47
2022-10-11T08:39:20.059Z,11.64
2022-10-11T08:41:52.333Z,11.80
2022-10-11T08:44:58.385Z,11.59
2022-10-11T08:47:28.194Z,11.83
2022-10-11T08:49:57.343Z,11.85
2022-10-11T08:52:29.440Z,11.94
2022-10-11T08:55:00.680Z,12.19
2022-10-11T08:57:31.060Z,12.36
2022-10-11T09:00:03.414Z,12.15
2022-10-11T09:03:06.440Z,12.52
2022-10-11T09:05:32.198Z,12.75
2022-10-11T09:08:09.446Z,12.80
2022-10-11T09:10:54.025Z,12.80
2022-10-11T09:13:34.721Z,13.01
2022-10-11T09:16:14.290Z,13.07
2022-10-11T09:19:02.536Z,13.18
2022-10-11T09:21:40.893Z,13.15
2022-10-11T09:24:31.751Z,13.34
2022-10-11T09:27:06.900Z,13.50
2022-10-11T09:29:51.416Z,13.81
2022-10-11T09:32:21.935Z,13.06
2022-10-11T09:34:56.873Z,12.54
2022-10-11T09:37:32.635Z,13.03
2022-10-11T09:40:08.748Z,13.30
2022-10-11T09:42:36.459Z,13.64
2022-10-11T09:45:15.136Z,13.50
2022-10-11T09:47:44.392Z,13.94
2022-10-11T09:50:17.490Z,14.08
2022-10-11T09:52:49.876Z,14.39
2022-10-11T09:55:33.304Z,14.66
2022-10-11T09:58:01.485Z,14.43
2022-10-11T10:00:33.450Z,14.69
2022-10-11T10:03:04.720Z,14.86
2022-10-11T10:05:34.144Z,14.82
2022-10-11T10:08:08.127Z,14.58
2022-10-11T10:10:39.653Z,14.80
2022-10-11T10:13:19.323Z,14.68
2022-10-11T10:15:48.770Z,14.80
2022-10-11T10:18:24.740Z,14.95
2022-10-11T10:20:54.887Z,14.83
2022-10-11T10:23:25.680Z,14.93
2022-10-11T10:25:54.783Z,14.89
2022-10-11T10:28:24.598Z,14.75
2022-10-11T10:30:54.647Z,14.73
2022-10-11T10:33:25.533Z,14.76
2022-10-11T10:35:57.694Z,14.82
2022-10-11T10:38:30.220Z,15.05
2022-10-11T10:41:02.752Z,14.86
2022-10-11T10:43:34.403Z,14.81
2022-10-11T10:46:37.720Z,14.43
2022-10-11T10:52:19.571Z,14.22
2022-10-11T10:54:57.473Z,14.21
2022-10-11T10:57:30.159Z,14.26
2022-10-11T11:00:11.730Z,14.79
2022-10-11T11:02:47.765Z,14.82
2022-10-11T11:05:27.094Z,14.90
2022-10-11T11:08:04.133Z,14.69
2022-10-11T11:10:37.377Z,14.38
2022-10-11T11:13:20.734Z,15.13
2022-10-11T11:15:59.390Z,15.57
2022-10-11T11:18:33.044Z,15.94
2022-10-11T11:21:25.017Z,16.27
2022-10-11T11:24:03.500Z,16.22
2022-10-11T11:26:44.245Z,16.08
2022-10-11T11:29:22.807Z,16.18
2022-10-11T11:32:08.000Z,14.99
2022-10-11T11:34:41.076Z,15.01
2022-10-11T11:37:22.800Z,15.26
2022-10-11T11:39:55.231Z,15.11
2022-10-11T11:42:27.595Z,14.49
2022-10-11T11:44:55.488Z,14.51
2022-10-11T11:47:30.277Z,14.59
2022-10-11T11:50:00.887Z,14.55
2022-10-11T11:52:34.904Z,14.52
2022-10-11T11:55:09.930Z,14.51
2022-10-11T11:57:53.490Z,14.33
2022-10-11T12:00:23.070Z,14.66
2022-10-11T12:02:54.374Z,15.35
2022-10-11T12:05:25.087Z,15.99
2022-10-11T12:07:58.536Z,16.06
2022-10-11T12:10:31.225Z,16.16
2022-10-11T12:13:17.370Z,15.88
2022-10-11T12:16:00.397Z,15.99
2022-10-11T12:18:29.192Z,15.94
2022-10-11T12:21:03.850Z,16.16
2022-10-11T12:23:42.176Z,15.81
2022-10-11T12:26:43.965Z,15.37
2022-10-11T12:29:29.122Z,15.30
2022-10-11T12:32:53.490Z,15.68
2022-10-11T12:36:04.140Z,16.04
2022-10-11T12:38:39.663Z,16.51
2022-10-11T12:41:39.144Z,16.49
2022-10-11T12:44:21.289Z,16.55
2022-10-11T12:47:22.665Z,16.61
2022-10-11T12:50:11.221Z,16.10
2022-10-11T12:52:51.482Z,16.83
2022-10-11T12:55:43.543Z,17.01
2022-10-11T12:58:30.254Z,15.94
2022-10-11T13:01:16.639Z,15.56
2022-10-11T13:03:47.443Z,16.25
2022-10-11T13:06:19.067Z,16.96
2022-10-11T13:08:53.249Z,17.20
2022-10-11T13:11:25.363Z,17.51
2022-10-11T13:13:56.617Z,18.11
2022-10-11T13:16:26.759Z,17.43
2022-10-11T13:18:58.664Z,17.82
2022-10-11T13:21:35.986Z,18.18
2022-10-11T13:24:10.650Z,18.21
2022-10-11T13:26:39.915Z,18.01
2022-10-11T13:29:16.596Z,18.12
2022-10-11T13:31:46.644Z,17.78
2022-10-11T13:34:17.571Z,17.76
2022-10-11T13:36:47.558Z,17.73
2022-10-11T13:39:30.945Z,17.56
2022-10-11T13:42:01.922Z,17.75
2022-10-11T13:44:33.519Z,18.20
2022-10-11T13:47:01.458Z,18.56
2022-10-11T13:49:37.561Z,18.57
2022-10-11T13:52:08.283Z,18.47
2022-10-11T13:54:55.583Z,18.27
2022-10-11T13:57:34.772Z,18.09
2022-10-11T14:00:04.195Z,18.04
2022-10-11T14:02:33.816Z,18.10
2022-10-11T14:05:01.581Z,17.99
2022-10-11T14:07:36.947Z,17.95
2022-10-11T14:10:06.649Z,18.05
2022-10-11T14:12:39.596Z,17.88
2022-10-11T14:15:24.087Z,18.01
2022-10-11T14:17:52.257Z,17.89
2022-10-11T14:20:23.552Z,17.92
2022-10-11T14:22:52.123Z,17.69
2022-10-11T14:25:20.060Z,17.54
2022-10-11T14:27:49.774Z,17.57
2022-10-11T14:30:27.614Z,17.48
2022-10-11T14:32:57.791Z,17.13
2022-10-11T14:35:27.887Z,16.76
2022-10-11T14:37:55.717Z,16.79
2022-10-11T14:40:25.263Z,16.91
2022-10-11T14:42:55.066Z,16.97
2022-10-11T14:45:22.758Z,16.75
2022-10-11T14:47:51.726Z,16.72
2022-10-11T14:50:37.751Z,16.46
2022-10-11T14:53:06.164Z,15.84
2022-10-11T14:55:34.154Z,15.99
2022-10-11T14:58:03.595Z,15.83
2022-10-11T15:00:33.003Z,15.63
2022-10-11T15:03:00.695Z,15.59
2022-10-11T15:05:33.879Z,15.55
2022-10-11T15:08:02.132Z,15.41
2022-10-11T15:10:34.670Z,15.47
2022-10-11T15:13:04.986Z,15.27
2022-10-11T15:15:35.458Z,15.17
2022-10-11T15:18:05.463Z,15.13
2022-10-11T15:20:35.791Z,14.92
2022-10-11T15:23:03.676Z,14.92
2022-10-11T15:25:32.054Z,14.93
2022-10-11T15:27:59.988Z,14.78
2022-10-11T15:30:31.320Z,14.77
2022-10-11T15:32:59.398Z,14.44
2022-10-11T15:35:29.659Z,14.42
2022-10-11T15:37:59.546Z,14.20
2022-10-11T15:40:31.783Z,14.04
2022-10-11T15:42:59.373Z,13.92
2022-10-11T15:45:30.734Z,13.85
2022-10-11T15:47:58.761Z,13.78
2022-10-11T15:50:36.671Z,13.73
2022-10-11T15:53:05.740Z,13.75
2022-10-11T15:55:35.024Z,13.64
2022-10-11T15:58:03.147Z,13.60
2022-10-11T16:00:32.269Z,13.44
2022-10-11T16:03:00.410Z,13.39
2022-10-11T16:05:28.865Z,13.21
2022-10-11T16:07:56.582Z,13.12
2022-10-11T16:10:24.323Z,13.01
2022-10-11T16:12:52.015Z,12.72
2022-10-11T16:15:19.893Z,12.74
2022-10-11T16:17:49.072Z,12.48
2022-10-11T16:20:21.965Z,12.48
2022-10-11T16:22:50.232Z,12.38
2022-10-11T16:25:18.327Z,12.33
2022-10-11T16:27:46.160Z,11.89
2022-10-11T16:30:15.701Z,11.81
2022-10-11T16:32:44.437Z,11.73
2022-10-11T16:35:15.188Z,11.66
2022-10-11T16:37:43.076Z,11.50
2022-10-11T16:40:12.097Z,11.20
2022-10-11T16:42:40.519Z,11.00
2022-10-11T16:45:09.218Z,10.85
2022-10-11T16:47:36.879Z,10.58
2022-10-11T16:50:06.064Z,10.48
2022-10-11T16:52:35.137Z,10.35
2022-10-11T16:55:03.001Z,10.21
2022-10-11T16:57:30.663Z,10.09
2022-10-11T16:59:58.462Z,9.96
2022-10-11T17:02:32.135Z,9.75
2022-10-11T17:05:00.309Z,9.72
2022-10-11T17:07:28.338Z,9.61
2022-10-11T17:09:57.986Z,9.44
2022-10-11T17:12:26.030Z,9.26
2022-10-11T17:14:54.157Z,9.15
2022-10-11T17:17:22.162Z,9.05
2022-10-11T17:19:49.822Z,8.94
2022-10-11T17:22:19.411Z,8.74
2022-10-11T17:24:47.444Z,8.65
2022-10-11T17:27:16.608Z,8.50
2022-10-11T17:29:44.335Z,8.38
2022-10-11T17:32:12.239Z,8.41
2022-10-11T17:34:39.839Z,8.29
2022-10-11T17:37:09.945Z,8.11
2022-10-11T17:39:37.752Z,8.06
2022-10-11T17:42:07.520Z,8.09
2022-10-11T17:44:37.271Z,8.03
2022-10-11T17:47:04.979Z,7.92
2022-10-11T17:49:32.949Z,7.84
2022-10-11T17:52:00.530Z,7.70
2022-10-11T17:54:28.250Z,7.57
2022-10-11T17:56:55.986Z,7.62
2022-10-11T17:59:27.425Z,7.39
2022-10-11T18:01:56.679Z,7.43
2022-10-11T18:04:27.054Z,7.40
2022-10-11T18:06:55.284Z,7.37
2022-10-11T18:09:24.708Z,7.15
2022-10-11T18:11:52.743Z,7.22
2022-10-11T18:14:21.156Z,7.03
2022-10-11T18:16:48.931Z,7.14
2022-10-11T18:19:17.986Z,7.13
2022-10-11T18:21:45.761Z,7.11
2022-10-11T18:24:16.326Z,7.01
2022-10-11T18:26:45.097Z,6.98
2022-10-11T18:29:13.613Z,6.91
2022-10-11T18:31:42.248Z,6.85
2022-10-11T18:34:11.483Z,6.76
2022-10-11T18:36:40.781Z,6.76
2022-10-11T18:39:11.082Z,6.68
2022-10-11T18:41:39.945Z,6.61
2022-10-11T18:44:10.887Z,6.57
2022-10-11T18:46:38.538Z,6.57
2022-10-11T18:49:06.374Z,6.43
2022-10-11T18:51:35.710Z,6.43
2022-10-11T18:54:06.346Z,6.43
2022-10-11T18:56:36.459Z,6.41
2022-10-11T18:59:05.086Z,6.33
2022-10-11T19:01:35.629Z,6.29
2022-10-11T19:04:04.474Z,6.19
2022-10-11T19:06:33.905Z,6.07
2022-10-11T19:09:05.140Z,6.20
2022-10-11T19:11:33.653Z,6.13
2022-10-11T19:14:03.054Z,6.26
2022-10-11T19:16:31.149Z,6.09
2022-10-11T19:18:59.322Z,6.12
2022-10-11T19:21:27.630Z,6.08
2022-10-11T19:23:56.717Z,6.06
2022-10-11T19:26:28.776Z,6.01
2022-10-11T19:28:58.209Z,5.90
2022-10-11T19:31:26.449Z,5.79
2022-10-11T19:33:54.145Z,5.79
2022-10-11T19:36:21.946Z,5.71
2022-10-11T19:38:51.329Z,5.70
2022-10-11T19:41:20.851Z,5.66
2022-10-11T19:43:51.318Z,5.60
2022-10-11T19:46:44.542Z,5.60
2022-10-11T19:49:09.118Z,5.50
2022-10-11T19:51:38.098Z,5.52
2022-10-11T19:54:07.993Z,5.48
2022-10-11T19:56:36.130Z,5.44
2022-10-11T19:59:06.588Z,5.30
2022-10-11T20:01:36.409Z,5.43
2022-10-11T20:04:06.635Z,5.32
2022-10-11T20:06:38.485Z,5.36
2022-10-11T20:11:54.796Z,5.25
2022-10-11T20:14:23.886Z,5.25
2022-10-11T20:16:52.180Z,5.26
2022-10-11T20:19:22.860Z,5.21
2022-10-11T20:21:54.316Z,5.12
2022-10-11T20:24:21.906Z,5.10
2022-10-11T20:26:49.549Z,5.01
2022-10-11T20:29:17.220Z,5.02
2022-10-11T20:31:46.319Z,5.01
2022-10-11T20:34:13.977Z,4.95
2022-10-11T20:36:42.990Z,4.80
2022-10-11T20:39:14.919Z,4.84
2022-10-11T20:41:42.923Z,4.83
2022-10-11T20:44:13.040Z,4.78
2022-10-11T20:46:40.763Z,4.81
2022-10-11T20:49:12.047Z,4.68
2022-10-11T20:51:41.453Z,4.77
2022-10-11T20:54:10.945Z,4.71
2022-10-11T20:56:39.074Z,4.64
2022-10-11T20:59:07.122Z,4.61
2022-10-11T21:01:37.037Z,4.59
2022-10-11T21:04:07.395Z,4.59
2022-10-11T21:06:36.459Z,4.61
2022-10-11T21:09:04.416Z,4.55
2022-10-11T21:11:35.059Z,4.57
2022-10-11T21:14:04.710Z,4.37
2022-10-11T21:16:33.332Z,4.51
2022-10-11T21:19:02.597Z,4.47
2022-10-11T21:21:31.331Z,4.40
2022-10-11T21:24:02.473Z,4.33
2022-10-11T21:26:31.274Z,4.38
2022-10-11T21:29:00.189Z,4.36
2022-10-11T21:31:32.920Z,4.34
2022-10-11T21:34:01.815Z,4.29
2022-10-11T21:36:29.541Z,4.32
2022-10-11T21:38:57.681Z,4.31
2022-10-11T21:41:29.830Z,4.30
2022-10-11T21:43:58.414Z,4.33
2022-10-11T21:46:47.708Z,4.24
2022-10-11T21:49:16.123Z,4.21
2022-10-11T21:51:43.857Z,4.24
2022-10-11T21:54:12.141Z,4.23
2022-10-11T21:56:41.691Z,4.16
2022-10-11T21:59:12.233Z,4.20
2022-10-11T22:01:41.740Z,4.19
2022-10-11T22:04:09.823Z,3.91
2022-10-11T22:06:39.053Z,4.09
2022-10-11T22:09:07.797Z,4.11
2022-10-11T22:11:36.281Z,4.13
2022-10-11T22:14:05.561Z,4.03
2022-10-11T22:16:34.314Z,3.88
2022-10-11T22:19:02.099Z,4.00
2022-10-11T22:21:29.917Z,4.01
2022-10-11T22:23:57.899Z,4.02
2022-10-11T22:26:29.895Z,3.93
2022-10-11T22:28:57.959Z,3.88
2022-10-11T22:31:27.993Z,3.79
2022-10-11T22:33:55.914Z,3.77
2022-10-11T22:36:24.243Z,3.76
2022-10-11T22:38:52.707Z,3.73
2022-10-11T22:41:20.467Z,3.74
2022-10-11T22:43:48.365Z,3.70
2022-10-11T22:46:15.982Z,3.77
2022-10-11T22:48:44.999Z,3.71
2022-10-11T22:51:12.807Z,3.66
2022-10-11T22:53:40.428Z,3.68
2022-10-11T22:56:09.313Z,3.61
2022-10-11T22:58:37.047Z,3.61
2022-10-11T23:01:09.017Z,3.65
2022-10-11T23:03:36.788Z,3.71
2022-10-11T23:06:06.512Z,3.63
2022-10-11T23:08:34.503Z,3.47
2022-10-11T23:11:04.624Z,3.47
2022-10-11T23:13:32.564Z,3.60
2022-10-11T23:16:00.352Z,3.47
2022-10-11T23:18:28.122Z,3.50
2022-10-11T23:20:55.924Z,3.56
2022-10-11T23:23:24.966Z,3.55
2022-10-11T23:26:01.483Z,3.46
2022-10-11T23:28:29.217Z,3.48
2022-10-11T23:30:57.013Z,3.40
2022-10-11T23:33:24.763Z,3.39
2022-10-11T23:35:52.518Z,3.39
2022-10-11T23:38:20.163Z,3.41
2022-10-11T23:40:49.158Z,3.40
2022-10-11T23:43:16.914Z,3.31
2022-10-11T23:45:45.129Z,3.46
2022-10-11T23:48:13.133Z,3.48
2022-10-11T23:50:40.952Z,3.40
2022-10-11T23:53:08.602Z,3.47
2022-10-11T23:55:36.554Z,3.46
2022-10-11T23:58:05.561Z,3.20
